sensor_id;sensor_type;location;lat;lon;timestamp;temperature;humidity
17954;DHT22;9102;53.548;9.926;2023-12-22T00:01:12;6.00;99.90
17954;DHT22;9102;53.548;9.926;2023-12-22T00:03:41;6.10;99.90
17954;DHT22;9102;53.548;9.926;2023-12-22T00:06:09;6.10;99.90
17954;DHT22;9102;53.548;9.926;2023-12-22T00:08:37;6.20;99.90
17954;DHT22;9102;53.548;9.926;2023-12-22T00:11:04;6.20;99.90
17954;DHT22;9102;53.548;9.926;2023-12-22T00:13:31;6.20;99.90
17954;DHT22;9102;53.548;9.926;2023-12-22T00:15:58;6.20;99.90
17954;DHT22;9102;53.548;9.926;2023-12-22T00:18:25;6.30;99.90
17954;DHT22;9102;53.548;9.926;2023-12-22T00:20:52;6.30;99.90
17954;DHT22;9102;53.548;9.926;2023-12-22T00:23:23;6.20;99.90
17954;DHT22;9102;53.548;9.926;2023-12-22T00:25:49;6.10;99.90
17954;DHT22;9102;53.548;9.926;2023-12-22T00:28:16;6.00;99.90
17954;DHT22;9102;53.548;9.926;2023-12-22T00:30:43;5.90;99.90
17954;DHT22;9102;53.548;9.926;2023-12-22T00:33:10;5.70;99.90
17954;DHT22;9102;53.548;9.926;2023-12-22T00:35:36;5.70;99.90
17954;DHT22;9102;53.548;9.926;2023-12-22T00:38:03;5.70;99.90
17954;DHT22;9102;53.548;9.926;2023-12-22T00:40:31;5.60;99.90
17954;DHT22;9102;53.548;9.926;2023-12-22T00:42:58;5.60;99.90
17954;DHT22;9102;53.548;9.926;2023-12-22T00:45:25;5.60;99.90
17954;DHT22;9102;53.548;9.926;2023-12-22T00:47:52;5.60;99.90
17954;DHT22;9102;53.548;9.926;2023-12-22T00:50:19;5.60;99.90
17954;DHT22;9102;53.548;9.926;2023-12-22T00:52:45;5.60;99.90
17954;DHT22;9102;53.548;9.926;2023-12-22T00:55:12;5.30;99.90
17954;DHT22;9102;53.548;9.926;2023-12-22T00:57:41;5.20;99.90
17954;DHT22;9102;53.548;9.926;2023-12-22T01:00:09;5.10;99.90
17954;DHT22;9102;53.548;9.926;2023-12-22T01:02:37;5.10;99.90
17954;DHT22;9102;53.548;9.926;2023-12-22T01:05:05;5.00;99.90
17954;DHT22;9102;53.548;9.926;2023-12-22T01:07:32;5.10;99.90
17954;DHT22;9102;53.548;9.926;2023-12-22T01:09:58;5.00;99.90
17954;DHT22;9102;53.548;9.926;2023-12-22T01:12:27;4.80;99.90
17954;DHT22;9102;53.548;9.926;2023-12-22T01:14:55;4.70;99.90
17954;DHT22;9102;53.548;9.926;2023-12-22T01:17:22;4.60;99.90
17954;DHT22;9102;53.548;9.926;2023-12-22T01:19:49;4.60;99.90
17954;DHT22;9102;53.548;9.926;2023-12-22T01:22:16;4.60;99.90
17954;DHT22;9102;53.548;9.926;2023-12-22T01:24:43;4.70;99.90
17954;DHT22;9102;53.548;9.926;2023-12-22T01:27:11;4.70;99.90
17954;DHT22;9102;53.548;9.926;2023-12-22T01:29:37;4.60;99.90
17954;DHT22;9102;53.548;9.926;2023-12-22T01:32:06;4.50;99.90
17954;DHT22;9102;53.548;9.926;2023-12-22T01:34:33;4.40;99.90
17954;DHT22;9102;53.548;9.926;2023-12-22T01:37:00;4.30;99.90
17954;DHT22;9102;53.548;9.926;2023-12-22T01:39:26;4.00;99.90
17954;DHT22;9102;53.548;9.926;2023-12-22T01:41:53;3.60;99.90
17954;DHT22;9102;53.548;9.926;2023-12-22T01:44:20;3.30;99.90
17954;DHT22;9102;53.548;9.926;2023-12-22T01:46:47;2.90;99.90
17954;DHT22;9102;53.548;9.926;2023-12-22T01:49:16;2.70;99.90
17954;DHT22;9102;53.548;9.926;2023-12-22T01:51:43;2.60;99.90
17954;DHT22;9102;53.548;9.926;2023-12-22T01:54:10;2.60;99.90
17954;DHT22;9102;53.548;9.926;2023-12-22T01:56:39;2.70;99.90
17954;DHT22;9102;53.548;9.926;2023-12-22T01:59:06;2.70;99.90
17954;DHT22;9102;53.548;9.926;2023-12-22T02:01:33;2.90;99.90
17954;DHT22;9102;53.548;9.926;2023-12-22T02:04:02;3.00;99.90
17954;DHT22;9102;53.548;9.926;2023-12-22T02:06:33;3.10;99.90
17954;DHT22;9102;53.548;9.926;2023-12-22T02:09:02;3.20;99.90
17954;DHT22;9102;53.548;9.926;2023-12-22T02:11:29;3.30;99.90
17954;DHT22;9102;53.548;9.926;2023-12-22T02:13:56;3.40;99.90
17954;DHT22;9102;53.548;9.926;2023-12-22T02:16:32;3.50;99.90
17954;DHT22;9102;53.548;9.926;2023-12-22T02:19:04;3.50;99.90
17954;DHT22;9102;53.548;9.926;2023-12-22T02:21:35;3.50;99.90
17954;DHT22;9102;53.548;9.926;2023-12-22T02:24:05;3.50;99.90
17954;DHT22;9102;53.548;9.926;2023-12-22T02:26:35;3.60;99.90
17954;DHT22;9102;53.548;9.926;2023-12-22T02:29:04;3.60;99.90
17954;DHT22;9102;53.548;9.926;2023-12-22T02:31:37;3.50;99.90
17954;DHT22;9102;53.548;9.926;2023-12-22T02:34:13;3.70;99.90
17954;DHT22;9102;53.548;9.926;2023-12-22T02:36:41;3.70;99.90
17954;DHT22;9102;53.548;9.926;2023-12-22T02:39:10;3.70;99.90
17954;DHT22;9102;53.548;9.926;2023-12-22T02:41:38;3.80;99.90
17954;DHT22;9102;53.548;9.926;2023-12-22T02:44:05;3.80;99.90
17954;DHT22;9102;53.548;9.926;2023-12-22T02:46:34;3.90;99.90
17954;DHT22;9102;53.548;9.926;2023-12-22T02:49:00;4.00;99.90
17954;DHT22;9102;53.548;9.926;2023-12-22T02:51:28;4.00;99.90
17954;DHT22;9102;53.548;9.926;2023-12-22T02:53:55;4.10;99.90
17954;DHT22;9102;53.548;9.926;2023-12-22T02:56:23;4.10;99.90
17954;DHT22;9102;53.548;9.926;2023-12-22T02:58:49;3.90;99.90
17954;DHT22;9102;53.548;9.926;2023-12-22T03:01:16;3.60;99.90
17954;DHT22;9102;53.548;9.926;2023-12-22T03:03:43;3.60;99.90
17954;DHT22;9102;53.548;9.926;2023-12-22T03:06:10;3.60;99.90
17954;DHT22;9102;53.548;9.926;2023-12-22T03:08:37;3.50;99.90
17954;DHT22;9102;53.548;9.926;2023-12-22T03:11:03;3.40;99.90
17954;DHT22;9102;53.548;9.926;2023-12-22T03:13:32;3.40;99.90
17954;DHT22;9102;53.548;9.926;2023-12-22T03:15:59;3.20;99.90
17954;DHT22;9102;53.548;9.926;2023-12-22T03:18:25;3.20;99.90
17954;DHT22;9102;53.548;9.926;2023-12-22T03:20:52;3.20;99.90
17954;DHT22;9102;53.548;9.926;2023-12-22T03:23:19;3.10;99.90
17954;DHT22;9102;53.548;9.926;2023-12-22T03:25:46;3.10;99.90
17954;DHT22;9102;53.548;9.926;2023-12-22T03:28:12;3.20;99.90
17954;DHT22;9102;53.548;9.926;2023-12-22T03:30:40;3.20;99.90
17954;DHT22;9102;53.548;9.926;2023-12-22T03:33:07;3.20;99.90
17954;DHT22;9102;53.548;9.926;2023-12-22T03:35:34;3.20;99.90
17954;DHT22;9102;53.548;9.926;2023-12-22T03:38:01;3.20;99.90
17954;DHT22;9102;53.548;9.926;2023-12-22T03:40:29;3.20;99.90
17954;DHT22;9102;53.548;9.926;2023-12-22T03:42:56;3.30;99.90
17954;DHT22;9102;53.548;9.926;2023-12-22T03:45:23;3.40;99.90
17954;DHT22;9102;53.548;9.926;2023-12-22T03:47:51;3.50;99.90
17954;DHT22;9102;53.548;9.926;2023-12-22T03:50:18;3.50;99.90
17954;DHT22;9102;53.548;9.926;2023-12-22T03:52:44;3.50;99.90
17954;DHT22;9102;53.548;9.926;2023-12-22T03:55:11;3.60;99.90
17954;DHT22;9102;53.548;9.926;2023-12-22T03:57:38;3.70;99.90
17954;DHT22;9102;53.548;9.926;2023-12-22T04:00:06;3.70;99.90
17954;DHT22;9102;53.548;9.926;2023-12-22T04:02:33;3.80;99.90
17954;DHT22;9102;53.548;9.926;2023-12-22T04:05:01;3.80;99.90
17954;DHT22;9102;53.548;9.926;2023-12-22T04:07:28;3.90;99.90
17954;DHT22;9102;53.548;9.926;2023-12-22T04:09:55;4.00;99.90
17954;DHT22;9102;53.548;9.926;2023-12-22T04:12:21;4.00;99.90
17954;DHT22;9102;53.548;9.926;2023-12-22T04:14:48;4.00;99.90
17954;DHT22;9102;53.548;9.926;2023-12-22T04:17:15;4.00;99.90
17954;DHT22;9102;53.548;9.926;2023-12-22T04:19:43;4.00;99.90
17954;DHT22;9102;53.548;9.926;2023-12-22T04:22:11;4.10;99.90
17954;DHT22;9102;53.548;9.926;2023-12-22T04:24:38;4.00;99.90
17954;DHT22;9102;53.548;9.926;2023-12-22T04:27:05;4.10;99.90
17954;DHT22;9102;53.548;9.926;2023-12-22T04:29:32;4.10;99.90
17954;DHT22;9102;53.548;9.926;2023-12-22T04:31:58;4.10;99.90
17954;DHT22;9102;53.548;9.926;2023-12-22T04:34:25;4.20;99.90
17954;DHT22;9102;53.548;9.926;2023-12-22T04:36:52;4.10;99.90
17954;DHT22;9102;53.548;9.926;2023-12-22T04:39:20;4.10;99.90
17954;DHT22;9102;53.548;9.926;2023-12-22T04:41:47;4.30;99.90
17954;DHT22;9102;53.548;9.926;2023-12-22T04:44:14;4.40;99.90
17954;DHT22;9102;53.548;9.926;2023-12-22T04:46:40;4.40;99.90
17954;DHT22;9102;53.548;9.926;2023-12-22T04:49:07;4.50;99.90
17954;DHT22;9102;53.548;9.926;2023-12-22T04:51:34;4.50;99.90
17954;DHT22;9102;53.548;9.926;2023-12-22T04:54:01;4.50;99.90
17954;DHT22;9102;53.548;9.926;2023-12-22T04:56:29;4.60;99.90
17954;DHT22;9102;53.548;9.926;2023-12-22T04:58:56;4.60;99.90
17954;DHT22;9102;53.548;9.926;2023-12-22T05:01:23;4.50;99.90
17954;DHT22;9102;53.548;9.926;2023-12-22T05:03:50;4.60;99.90
17954;DHT22;9102;53.548;9.926;2023-12-22T05:06:17;4.70;99.90
17954;DHT22;9102;53.548;9.926;2023-12-22T05:08:43;4.80;99.90
17954;DHT22;9102;53.548;9.926;2023-12-22T05:11:10;4.80;99.90
17954;DHT22;9102;53.548;9.926;2023-12-22T05:13:38;4.90;99.90
17954;DHT22;9102;53.548;9.926;2023-12-22T05:16:06;4.90;99.90
17954;DHT22;9102;53.548;9.926;2023-12-22T05:18:32;4.70;99.90
17954;DHT22;9102;53.548;9.926;2023-12-22T05:20:59;4.50;99.90
17954;DHT22;9102;53.548;9.926;2023-12-22T05:23:26;4.20;99.90
17954;DHT22;9102;53.548;9.926;2023-12-22T05:25:53;4.00;99.90
17954;DHT22;9102;53.548;9.926;2023-12-22T05:28:20;3.80;99.90
17954;DHT22;9102;53.548;9.926;2023-12-22T05:30:48;3.60;99.90
17954;DHT22;9102;53.548;9.926;2023-12-22T05:33:15;3.50;99.90
17954;DHT22;9102;53.548;9.926;2023-12-22T05:35:41;3.40;99.90
17954;DHT22;9102;53.548;9.926;2023-12-22T05:38:08;3.40;99.90
17954;DHT22;9102;53.548;9.926;2023-12-22T05:40:35;3.50;99.90
17954;DHT22;9102;53.548;9.926;2023-12-22T05:43:02;3.60;99.90
17954;DHT22;9102;53.548;9.926;2023-12-22T05:45:29;3.70;99.90
17954;DHT22;9102;53.548;9.926;2023-12-22T05:47:57;3.60;99.90
17954;DHT22;9102;53.548;9.926;2023-12-22T05:50:24;3.40;99.90
17954;DHT22;9102;53.548;9.926;2023-12-22T05:52:51;3.20;99.90
17954;DHT22;9102;53.548;9.926;2023-12-22T05:55:18;3.10;99.90
17954;DHT22;9102;53.548;9.926;2023-12-22T05:57:44;2.90;99.90
17954;DHT22;9102;53.548;9.926;2023-12-22T06:00:12;2.90;99.90
17954;DHT22;9102;53.548;9.926;2023-12-22T06:02:40;2.80;99.90
17954;DHT22;9102;53.548;9.926;2023-12-22T06:05:09;2.80;99.90
17954;DHT22;9102;53.548;9.926;2023-12-22T06:07:35;2.80;99.90
17954;DHT22;9102;53.548;9.926;2023-12-22T06:10:02;2.80;99.90
17954;DHT22;9102;53.548;9.926;2023-12-22T06:12:29;2.90;99.90
17954;DHT22;9102;53.548;9.926;2023-12-22T06:14:56;2.90;99.90
17954;DHT22;9102;53.548;9.926;2023-12-22T06:17:23;3.00;99.90
17954;DHT22;9102;53.548;9.926;2023-12-22T06:19:50;3.00;99.90
17954;DHT22;9102;53.548;9.926;2023-12-22T06:22:18;3.10;99.90
17954;DHT22;9102;53.548;9.926;2023-12-22T06:24:44;3.20;99.90
17954;DHT22;9102;53.548;9.926;2023-12-22T06:27:11;3.30;99.90
17954;DHT22;9102;53.548;9.926;2023-12-22T06:29:38;3.40;99.90
17954;DHT22;9102;53.548;9.926;2023-12-22T06:32:06;3.50;99.90
17954;DHT22;9102;53.548;9.926;2023-12-22T06:34:33;3.60;99.90
17954;DHT22;9102;53.548;9.926;2023-12-22T06:37:00;3.80;99.90
17954;DHT22;9102;53.548;9.926;2023-12-22T06:39:28;3.90;99.90
17954;DHT22;9102;53.548;9.926;2023-12-22T06:41:55;4.10;99.90
17954;DHT22;9102;53.548;9.926;2023-12-22T06:44:22;4.20;99.90
17954;DHT22;9102;53.548;9.926;2023-12-22T06:46:48;4.20;99.90
17954;DHT22;9102;53.548;9.926;2023-12-22T06:49:15;4.20;99.90
17954;DHT22;9102;53.548;9.926;2023-12-22T06:51:42;4.20;99.90
17954;DHT22;9102;53.548;9.926;2023-12-22T06:54:09;4.20;99.90
17954;DHT22;9102;53.548;9.926;2023-12-22T06:56:37;4.20;99.90
17954;DHT22;9102;53.548;9.926;2023-12-22T06:59:06;4.30;99.90
17954;DHT22;9102;53.548;9.926;2023-12-22T07:01:34;4.30;99.90
17954;DHT22;9102;53.548;9.926;2023-12-22T07:04:02;4.20;99.90
17954;DHT22;9102;53.548;9.926;2023-12-22T07:06:30;4.30;99.90
17954;DHT22;9102;53.548;9.926;2023-12-22T07:09:31;4.30;99.90
17954;DHT22;9102;53.548;9.926;2023-12-22T07:11:59;4.20;99.90
17954;DHT22;9102;53.548;9.926;2023-12-22T07:14:26;4.30;99.90
17954;DHT22;9102;53.548;9.926;2023-12-22T07:16:53;4.30;99.90
17954;DHT22;9102;53.548;9.926;2023-12-22T07:19:20;4.30;99.90
17954;DHT22;9102;53.548;9.926;2023-12-22T07:21:48;4.40;99.90
17954;DHT22;9102;53.548;9.926;2023-12-22T07:24:15;4.30;99.90
17954;DHT22;9102;53.548;9.926;2023-12-22T07:26:43;4.40;99.90
17954;DHT22;9102;53.548;9.926;2023-12-22T07:29:11;4.50;99.90
17954;DHT22;9102;53.548;9.926;2023-12-22T07:31:38;4.60;99.90
17954;DHT22;9102;53.548;9.926;2023-12-22T07:34:05;4.50;99.90
17954;DHT22;9102;53.548;9.926;2023-12-22T07:36:32;4.10;99.90
17954;DHT22;9102;53.548;9.926;2023-12-22T07:38:59;3.80;99.90
17954;DHT22;9102;53.548;9.926;2023-12-22T07:41:26;3.70;99.90
17954;DHT22;9102;53.548;9.926;2023-12-22T07:43:53;3.20;99.90
17954;DHT22;9102;53.548;9.926;2023-12-22T07:46:21;3.00;99.90
17954;DHT22;9102;53.548;9.926;2023-12-22T07:48:48;2.90;99.90
17954;DHT22;9102;53.548;9.926;2023-12-22T07:51:16;3.00;99.90
17954;DHT22;9102;53.548;9.926;2023-12-22T07:53:42;3.10;99.90
17954;DHT22;9102;53.548;9.926;2023-12-22T07:56:10;3.20;99.90
17954;DHT22;9102;53.548;9.926;2023-12-22T07:58:37;3.20;99.90
17954;DHT22;9102;53.548;9.926;2023-12-22T08:01:04;3.20;99.90
17954;DHT22;9102;53.548;9.926;2023-12-22T08:03:33;3.20;99.90
17954;DHT22;9102;53.548;9.926;2023-12-22T08:06:00;3.40;99.90
17954;DHT22;9102;53.548;9.926;2023-12-22T08:08:27;3.40;99.90
17954;DHT22;9102;53.548;9.926;2023-12-22T08:10:54;3.40;99.90
17954;DHT22;9102;53.548;9.926;2023-12-22T08:13:21;3.50;99.90
17954;DHT22;9102;53.548;9.926;2023-12-22T08:15:48;3.50;99.90
17954;DHT22;9102;53.548;9.926;2023-12-22T08:18:17;3.60;99.90
17954;DHT22;9102;53.548;9.926;2023-12-22T08:20:45;3.60;99.90
17954;DHT22;9102;53.548;9.926;2023-12-22T08:23:15;3.20;99.90
17954;DHT22;9102;53.548;9.926;2023-12-22T08:25:43;2.90;99.90
17954;DHT22;9102;53.548;9.926;2023-12-22T08:28:10;2.70;99.90
17954;DHT22;9102;53.548;9.926;2023-12-22T08:30:37;2.70;99.90
17954;DHT22;9102;53.548;9.926;2023-12-22T08:33:04;2.90;99.90
17954;DHT22;9102;53.548;9.926;2023-12-22T08:35:31;3.00;99.90
17954;DHT22;9102;53.548;9.926;2023-12-22T08:37:59;3.10;99.90
17954;DHT22;9102;53.548;9.926;2023-12-22T08:40:26;3.30;99.90
17954;DHT22;9102;53.548;9.926;2023-12-22T08:42:53;3.40;99.90
17954;DHT22;9102;53.548;9.926;2023-12-22T08:45:25;3.50;99.90
17954;DHT22;9102;53.548;9.926;2023-12-22T08:47:54;3.60;99.90
17954;DHT22;9102;53.548;9.926;2023-12-22T08:50:21;3.80;99.90
17954;DHT22;9102;53.548;9.926;2023-12-22T08:52:47;4.00;99.90
17954;DHT22;9102;53.548;9.926;2023-12-22T08:55:15;3.90;99.90
17954;DHT22;9102;53.548;9.926;2023-12-22T08:57:42;4.10;99.90
17954;DHT22;9102;53.548;9.926;2023-12-22T09:00:10;4.20;99.90
17954;DHT22;9102;53.548;9.926;2023-12-22T09:02:37;4.20;99.90
17954;DHT22;9102;53.548;9.926;2023-12-22T09:05:04;4.20;99.90
17954;DHT22;9102;53.548;9.926;2023-12-22T09:07:32;4.20;99.90
17954;DHT22;9102;53.548;9.926;2023-12-22T09:09:59;4.20;99.90
17954;DHT22;9102;53.548;9.926;2023-12-22T09:12:28;4.30;99.90
17954;DHT22;9102;53.548;9.926;2023-12-22T09:14:54;4.30;99.90
17954;DHT22;9102;53.548;9.926;2023-12-22T09:17:21;4.40;99.90
17954;DHT22;9102;53.548;9.926;2023-12-22T09:19:48;4.40;99.90
17954;DHT22;9102;53.548;9.926;2023-12-22T09:22:15;4.50;99.90
17954;DHT22;9102;53.548;9.926;2023-12-22T09:24:42;4.60;99.90
17954;DHT22;9102;53.548;9.926;2023-12-22T09:27:09;4.60;99.90
17954;DHT22;9102;53.548;9.926;2023-12-22T09:29:37;4.70;99.90
17954;DHT22;9102;53.548;9.926;2023-12-22T09:32:04;4.80;99.90
17954;DHT22;9102;53.548;9.926;2023-12-22T09:34:32;4.80;99.90
17954;DHT22;9102;53.548;9.926;2023-12-22T09:36:59;4.90;99.90
17954;DHT22;9102;53.548;9.926;2023-12-22T09:39:26;4.90;99.90
17954;DHT22;9102;53.548;9.926;2023-12-22T09:41:54;4.90;99.90
17954;DHT22;9102;53.548;9.926;2023-12-22T09:44:21;4.90;99.90
17954;DHT22;9102;53.548;9.926;2023-12-22T09:46:50;5.00;99.90
17954;DHT22;9102;53.548;9.926;2023-12-22T09:49:18;5.00;99.90
17954;DHT22;9102;53.548;9.926;2023-12-22T09:51:46;5.00;99.90
17954;DHT22;9102;53.548;9.926;2023-12-22T09:54:13;5.00;99.90
17954;DHT22;9102;53.548;9.926;2023-12-22T09:56:41;5.00;99.90
17954;DHT22;9102;53.548;9.926;2023-12-22T09:59:10;5.10;99.90
17954;DHT22;9102;53.548;9.926;2023-12-22T10:01:40;5.10;99.90
17954;DHT22;9102;53.548;9.926;2023-12-22T10:04:09;5.20;99.90
17954;DHT22;9102;53.548;9.926;2023-12-22T10:06:36;5.30;99.90
17954;DHT22;9102;53.548;9.926;2023-12-22T10:09:04;5.50;99.90
17954;DHT22;9102;53.548;9.926;2023-12-22T10:11:33;5.30;99.90
17954;DHT22;9102;53.548;9.926;2023-12-22T10:14:02;5.30;99.90
17954;DHT22;9102;53.548;9.926;2023-12-22T10:16:29;5.30;99.90
17954;DHT22;9102;53.548;9.926;2023-12-22T10:18:57;5.40;99.90
17954;DHT22;9102;53.548;9.926;2023-12-22T10:21:26;5.40;99.90
17954;DHT22;9102;53.548;9.926;2023-12-22T10:23:56;5.40;99.90
17954;DHT22;9102;53.548;9.926;2023-12-22T10:26:23;5.40;99.90
17954;DHT22;9102;53.548;9.926;2023-12-22T10:28:50;5.50;99.90
17954;DHT22;9102;53.548;9.926;2023-12-22T10:31:17;5.50;99.90
17954;DHT22;9102;53.548;9.926;2023-12-22T10:33:44;5.50;99.90
17954;DHT22;9102;53.548;9.926;2023-12-22T10:36:11;5.50;99.90
17954;DHT22;9102;53.548;9.926;2023-12-22T10:38:39;5.50;99.90
17954;DHT22;9102;53.548;9.926;2023-12-22T10:41:08;5.50;99.90
17954;DHT22;9102;53.548;9.926;2023-12-22T10:43:38;5.50;99.90
17954;DHT22;9102;53.548;9.926;2023-12-22T10:46:05;5.40;99.90
17954;DHT22;9102;53.548;9.926;2023-12-22T10:48:33;5.20;99.90
17954;DHT22;9102;53.548;9.926;2023-12-22T10:51:00;4.80;99.90
17954;DHT22;9102;53.548;9.926;2023-12-22T10:53:27;4.30;99.90
17954;DHT22;9102;53.548;9.926;2023-12-22T10:55:56;4.10;99.90
17954;DHT22;9102;53.548;9.926;2023-12-22T10:58:23;3.70;99.90
17954;DHT22;9102;53.548;9.926;2023-12-22T11:00:50;3.40;99.90
17954;DHT22;9102;53.548;9.926;2023-12-22T11:03:18;3.30;99.90
17954;DHT22;9102;53.548;9.926;2023-12-22T11:05:48;3.30;99.90
17954;DHT22;9102;53.548;9.926;2023-12-22T11:08:17;3.40;99.90
17954;DHT22;9102;53.548;9.926;2023-12-22T11:10:49;3.50;99.90
17954;DHT22;9102;53.548;9.926;2023-12-22T11:13:23;3.50;99.90
17954;DHT22;9102;53.548;9.926;2023-12-22T11:15:52;3.50;99.90
17954;DHT22;9102;53.548;9.926;2023-12-22T11:18:19;3.60;99.90
17954;DHT22;9102;53.548;9.926;2023-12-22T11:20:47;3.60;99.90
17954;DHT22;9102;53.548;9.926;2023-12-22T11:23:16;3.50;99.90
17954;DHT22;9102;53.548;9.926;2023-12-22T11:25:44;3.50;99.90
17954;DHT22;9102;53.548;9.926;2023-12-22T11:28:17;3.50;99.90
17954;DHT22;9102;53.548;9.926;2023-12-22T11:30:49;3.40;99.90
17954;DHT22;9102;53.548;9.926;2023-12-22T11:33:18;3.30;99.90
17954;DHT22;9102;53.548;9.926;2023-12-22T11:35:46;3.30;99.90
17954;DHT22;9102;53.548;9.926;2023-12-22T11:38:13;3.30;99.90
17954;DHT22;9102;53.548;9.926;2023-12-22T11:40:40;3.30;99.90
17954;DHT22;9102;53.548;9.926;2023-12-22T11:43:07;3.30;99.90
17954;DHT22;9102;53.548;9.926;2023-12-22T11:45:35;3.30;99.90
17954;DHT22;9102;53.548;9.926;2023-12-22T11:48:08;3.30;99.90
17954;DHT22;9102;53.548;9.926;2023-12-22T11:50:35;3.30;99.90
17954;DHT22;9102;53.548;9.926;2023-12-22T11:53:19;3.40;99.90
17954;DHT22;9102;53.548;9.926;2023-12-22T11:56:02;3.40;99.90
17954;DHT22;9102;53.548;9.926;2023-12-22T11:58:35;3.50;99.90
17954;DHT22;9102;53.548;9.926;2023-12-22T12:01:03;3.50;99.90
17954;DHT22;9102;53.548;9.926;2023-12-22T12:03:33;3.60;99.90
17954;DHT22;9102;53.548;9.926;2023-12-22T12:06:16;3.60;99.90
17954;DHT22;9102;53.548;9.926;2023-12-22T12:08:43;3.70;99.90
17954;DHT22;9102;53.548;9.926;2023-12-22T12:11:10;3.80;99.90
17954;DHT22;9102;53.548;9.926;2023-12-22T12:13:42;3.90;99.90
17954;DHT22;9102;53.548;9.926;2023-12-22T12:16:11;4.00;99.90
17954;DHT22;9102;53.548;9.926;2023-12-22T12:18:40;4.00;99.90
17954;DHT22;9102;53.548;9.926;2023-12-22T12:21:07;4.20;99.90
17954;DHT22;9102;53.548;9.926;2023-12-22T12:23:35;4.10;99.90
17954;DHT22;9102;53.548;9.926;2023-12-22T12:26:02;4.10;99.90
17954;DHT22;9102;53.548;9.926;2023-12-22T12:28:32;4.10;99.90
17954;DHT22;9102;53.548;9.926;2023-12-22T12:31:00;4.10;99.90
17954;DHT22;9102;53.548;9.926;2023-12-22T12:33:27;4.10;99.90
17954;DHT22;9102;53.548;9.926;2023-12-22T12:35:57;4.30;99.90
17954;DHT22;9102;53.548;9.926;2023-12-22T12:38:42;4.20;99.90
17954;DHT22;9102;53.548;9.926;2023-12-22T12:41:10;4.30;99.90
17954;DHT22;9102;53.548;9.926;2023-12-22T12:43:41;4.30;99.90
17954;DHT22;9102;53.548;9.926;2023-12-22T12:46:09;4.30;99.90
17954;DHT22;9102;53.548;9.926;2023-12-22T12:48:36;4.40;99.90
17954;DHT22;9102;53.548;9.926;2023-12-22T12:51:05;4.50;99.90
17954;DHT22;9102;53.548;9.926;2023-12-22T12:53:32;4.50;99.90
17954;DHT22;9102;53.548;9.926;2023-12-22T12:56:00;4.60;99.90
17954;DHT22;9102;53.548;9.926;2023-12-22T12:58:28;4.70;99.90
17954;DHT22;9102;53.548;9.926;2023-12-22T13:01:04;4.70;99.90
17954;DHT22;9102;53.548;9.926;2023-12-22T13:03:31;4.80;99.90
17954;DHT22;9102;53.548;9.926;2023-12-22T13:06:07;4.80;99.90
17954;DHT22;9102;53.548;9.926;2023-12-22T13:08:34;5.00;99.90
17954;DHT22;9102;53.548;9.926;2023-12-22T13:11:03;5.00;99.90
17954;DHT22;9102;53.548;9.926;2023-12-22T13:13:30;5.00;99.90
17954;DHT22;9102;53.548;9.926;2023-12-22T13:16:07;5.10;99.90
17954;DHT22;9102;53.548;9.926;2023-12-22T13:18:33;5.20;99.90
17954;DHT22;9102;53.548;9.926;2023-12-22T13:21:00;5.10;99.90
17954;DHT22;9102;53.548;9.926;2023-12-22T13:23:30;5.10;99.90
17954;DHT22;9102;53.548;9.926;2023-12-22T13:25:57;5.20;99.90
17954;DHT22;9102;53.548;9.926;2023-12-22T13:28:27;5.20;99.90
17954;DHT22;9102;53.548;9.926;2023-12-22T13:30:55;5.20;99.90
17954;DHT22;9102;53.548;9.926;2023-12-22T13:33:22;5.20;99.90
17954;DHT22;9102;53.548;9.926;2023-12-22T13:35:50;5.30;99.90
17954;DHT22;9102;53.548;9.926;2023-12-22T13:38:18;5.30;99.90
17954;DHT22;9102;53.548;9.926;2023-12-22T13:40:47;5.30;99.90
17954;DHT22;9102;53.548;9.926;2023-12-22T13:43:14;5.30;99.90
17954;DHT22;9102;53.548;9.926;2023-12-22T13:45:41;5.30;99.90
17954;DHT22;9102;53.548;9.926;2023-12-22T13:48:08;5.30;99.90
17954;DHT22;9102;53.548;9.926;2023-12-22T13:50:35;5.40;99.90
17954;DHT22;9102;53.548;9.926;2023-12-22T13:53:09;5.40;99.90
17954;DHT22;9102;53.548;9.926;2023-12-22T13:55:36;5.40;99.90
17954;DHT22;9102;53.548;9.926;2023-12-22T13:58:05;5.40;99.90
17954;DHT22;9102;53.548;9.926;2023-12-22T14:00:33;5.40;99.90
17954;DHT22;9102;53.548;9.926;2023-12-22T14:03:01;5.50;99.90
17954;DHT22;9102;53.548;9.926;2023-12-22T14:05:28;5.40;99.90
17954;DHT22;9102;53.548;9.926;2023-12-22T14:07:55;5.30;99.90
17954;DHT22;9102;53.548;9.926;2023-12-22T14:10:22;5.20;99.90
17954;DHT22;9102;53.548;9.926;2023-12-22T14:12:49;5.10;99.90
17954;DHT22;9102;53.548;9.926;2023-12-22T14:15:18;5.00;99.90
17954;DHT22;9102;53.548;9.926;2023-12-22T14:17:45;4.80;99.90
17954;DHT22;9102;53.548;9.926;2023-12-22T14:20:12;4.70;99.90
17954;DHT22;9102;53.548;9.926;2023-12-22T14:22:40;4.60;99.90
17954;DHT22;9102;53.548;9.926;2023-12-22T14:25:07;4.50;99.90
17954;DHT22;9102;53.548;9.926;2023-12-22T14:27:34;4.50;99.90
17954;DHT22;9102;53.548;9.926;2023-12-22T14:30:01;4.50;99.90
17954;DHT22;9102;53.548;9.926;2023-12-22T14:32:30;4.40;99.90
17954;DHT22;9102;53.548;9.926;2023-12-22T14:34:57;4.40;99.90
17954;DHT22;9102;53.548;9.926;2023-12-22T14:37:24;4.40;99.90
17954;DHT22;9102;53.548;9.926;2023-12-22T14:39:51;4.40;99.90
17954;DHT22;9102;53.548;9.926;2023-12-22T14:42:18;4.40;99.90
17954;DHT22;9102;53.548;9.926;2023-12-22T14:44:45;4.40;99.90
17954;DHT22;9102;53.548;9.926;2023-12-22T14:47:11;4.50;99.90
17954;DHT22;9102;53.548;9.926;2023-12-22T14:49:40;4.50;99.90
17954;DHT22;9102;53.548;9.926;2023-12-22T14:52:06;4.50;99.90
17954;DHT22;9102;53.548;9.926;2023-12-22T14:54:33;4.50;99.90
17954;DHT22;9102;53.548;9.926;2023-12-22T14:57:00;4.60;99.90
17954;DHT22;9102;53.548;9.926;2023-12-22T14:59:27;4.60;99.90
17954;DHT22;9102;53.548;9.926;2023-12-22T15:01:54;4.60;99.90
17954;DHT22;9102;53.548;9.926;2023-12-22T15:04:20;4.70;99.90
17954;DHT22;9102;53.548;9.926;2023-12-22T15:06:49;4.70;99.90
17954;DHT22;9102;53.548;9.926;2023-12-22T15:09:16;4.70;99.90
17954;DHT22;9102;53.548;9.926;2023-12-22T15:11:43;4.70;99.90
17954;DHT22;9102;53.548;9.926;2023-12-22T15:14:10;4.70;99.90
17954;DHT22;9102;53.548;9.926;2023-12-22T15:16:39;4.70;99.90
17954;DHT22;9102;53.548;9.926;2023-12-22T15:19:06;4.80;99.90
17954;DHT22;9102;53.548;9.926;2023-12-22T15:21:33;4.80;99.90
17954;DHT22;9102;53.548;9.926;2023-12-22T15:24:01;4.80;99.90
17954;DHT22;9102;53.548;9.926;2023-12-22T15:26:28;4.90;99.90
17954;DHT22;9102;53.548;9.926;2023-12-22T15:28:55;4.80;99.90
17954;DHT22;9102;53.548;9.926;2023-12-22T15:31:22;4.80;99.90
17954;DHT22;9102;53.548;9.926;2023-12-22T15:33:50;4.80;99.90
17954;DHT22;9102;53.548;9.926;2023-12-22T15:36:17;4.80;99.90
17954;DHT22;9102;53.548;9.926;2023-12-22T15:38:44;4.80;99.90
17954;DHT22;9102;53.548;9.926;2023-12-22T15:41:13;4.80;99.90
17954;DHT22;9102;53.548;9.926;2023-12-22T15:43:39;4.80;99.90
17954;DHT22;9102;53.548;9.926;2023-12-22T15:46:06;4.80;99.90
17954;DHT22;9102;53.548;9.926;2023-12-22T15:48:34;4.70;99.90
17954;DHT22;9102;53.548;9.926;2023-12-22T15:51:05;4.70;99.90
17954;DHT22;9102;53.548;9.926;2023-12-22T15:53:34;4.80;99.90
17954;DHT22;9102;53.548;9.926;2023-12-22T15:56:06;4.70;99.90
17954;DHT22;9102;53.548;9.926;2023-12-22T15:58:35;4.70;99.90
17954;DHT22;9102;53.548;9.926;2023-12-22T16:01:03;4.60;99.90
17954;DHT22;9102;53.548;9.926;2023-12-22T16:03:30;4.60;99.90
17954;DHT22;9102;53.548;9.926;2023-12-22T16:05:57;4.60;99.90